sensor_id;sensor_type;location;lat;lon;timestamp;temperature;humidity
55036;DHT22;40936;53.008;6.556;2023-02-21T00:02:30;11.80;99.90
55036;DHT22;40936;53.008;6.556;2023-02-21T00:05:15;11.80;99.90
55036;DHT22;40936;53.008;6.556;2023-02-21T00:07:59;11.80;99.90
55036;DHT22;40936;53.008;6.556;2023-02-21T00:10:43;11.80;99.90
55036;DHT22;40936;53.008;6.556;2023-02-21T00:13:28;11.80;99.90
55036;DHT22;40936;53.008;6.556;2023-02-21T00:16:16;11.80;99.90
55036;DHT22;40936;53.008;6.556;2023-02-21T00:19:02;11.80;99.90
55036;DHT22;40936;53.008;6.556;2023-02-21T00:21:46;11.90;99.90
55036;DHT22;40936;53.008;6.556;2023-02-21T00:24:30;11.80;99.90
55036;DHT22;40936;53.008;6.556;2023-02-21T00:27:14;11.90;99.90
55036;DHT22;40936;53.008;6.556;2023-02-21T00:29:59;11.90;99.90
55036;DHT22;40936;53.008;6.556;2023-02-21T00:32:43;11.90;99.90
55036;DHT22;40936;53.008;6.556;2023-02-21T00:35:28;11.90;99.90
55036;DHT22;40936;53.008;6.556;2023-02-21T00:38:12;11.90;99.90
55036;DHT22;40936;53.008;6.556;2023-02-21T00:40:56;11.90;99.90
55036;DHT22;40936;53.008;6.556;2023-02-21T00:43:41;12.80;99.90
55036;DHT22;40936;53.008;6.556;2023-02-21T00:46:25;11.90;99.90
55036;DHT22;40936;53.008;6.556;2023-02-21T00:49:10;11.80;99.90
55036;DHT22;40936;53.008;6.556;2023-02-21T00:51:54;11.90;99.90
55036;DHT22;40936;53.008;6.556;2023-02-21T00:54:38;11.80;99.90
55036;DHT22;40936;53.008;6.556;2023-02-21T00:57:23;11.80;99.90
55036;DHT22;40936;53.008;6.556;2023-02-21T01:00:13;11.80;99.90
55036;DHT22;40936;53.008;6.556;2023-02-21T01:02:57;11.80;99.90
55036;DHT22;40936;53.008;6.556;2023-02-21T01:05:41;11.80;99.90
55036;DHT22;40936;53.008;6.556;2023-02-21T01:08:25;11.80;99.90
55036;DHT22;40936;53.008;6.556;2023-02-21T01:11:20;11.80;99.90
55036;DHT22;40936;53.008;6.556;2023-02-21T01:14:05;11.80;99.90
55036;DHT22;40936;53.008;6.556;2023-02-21T01:16:49;11.80;99.90
55036;DHT22;40936;53.008;6.556;2023-02-21T01:19:34;11.80;99.90
55036;DHT22;40936;53.008;6.556;2023-02-21T01:22:18;11.80;99.90
55036;DHT22;40936;53.008;6.556;2023-02-21T01:25:03;11.80;99.90
55036;DHT22;40936;53.008;6.556;2023-02-21T01:27:48;11.80;99.90
55036;DHT22;40936;53.008;6.556;2023-02-21T01:30:32;11.80;99.90
55036;DHT22;40936;53.008;6.556;2023-02-21T01:33:17;12.10;99.90
55036;DHT22;40936;53.008;6.556;2023-02-21T01:36:04;11.80;99.90
55036;DHT22;40936;53.008;6.556;2023-02-21T01:38:48;11.80;99.90
55036;DHT22;40936;53.008;6.556;2023-02-21T01:41:33;11.80;99.90
55036;DHT22;40936;53.008;6.556;2023-02-21T01:47:16;11.80;99.90
55036;DHT22;40936;53.008;6.556;2023-02-21T01:50:04;11.80;99.90
55036;DHT22;40936;53.008;6.556;2023-02-21T01:52:50;11.70;99.90
55036;DHT22;40936;53.008;6.556;2023-02-21T01:55:35;11.80;99.90
55036;DHT22;40936;53.008;6.556;2023-02-21T01:58:23;11.80;99.90
55036;DHT22;40936;53.008;6.556;2023-02-21T02:01:16;11.80;99.90
55036;DHT22;40936;53.008;6.556;2023-02-21T02:04:02;11.80;99.90
55036;DHT22;40936;53.008;6.556;2023-02-21T02:06:47;11.80;99.90
55036;DHT22;40936;53.008;6.556;2023-02-21T02:09:31;11.80;99.90
55036;DHT22;40936;53.008;6.556;2023-02-21T02:23:00;11.80;99.90
55036;DHT22;40936;53.008;6.556;2023-02-21T02:25:42;11.80;99.90
55036;DHT22;40936;53.008;6.556;2023-02-21T02:31:41;11.80;99.90
55036;DHT22;40936;53.008;6.556;2023-02-21T02:37:08;11.80;99.90
55036;DHT22;40936;53.008;6.556;2023-02-21T02:39:39;11.80;99.90
55036;DHT22;40936;53.008;6.556;2023-02-21T02:44:43;11.80;99.90
55036;DHT22;40936;53.008;6.556;2023-02-21T02:47:21;11.80;99.90
55036;DHT22;40936;53.008;6.556;2023-02-21T02:49:49;12.00;99.90
55036;DHT22;40936;53.008;6.556;2023-02-21T02:52:16;11.80;99.90
55036;DHT22;40936;53.008;6.556;2023-02-21T02:54:41;11.80;99.90
55036;DHT22;40936;53.008;6.556;2023-02-21T02:57:09;11.70;99.90
55036;DHT22;40936;53.008;6.556;2023-02-21T02:59:41;11.70;99.90
55036;DHT22;40936;53.008;6.556;2023-02-21T03:04:47;11.70;99.90
55036;DHT22;40936;53.008;6.556;2023-02-21T03:07:37;11.70;99.90
55036;DHT22;40936;53.008;6.556;2023-02-21T03:12:35;11.70;99.90
55036;DHT22;40936;53.008;6.556;2023-02-21T03:15:35;11.70;99.90
55036;DHT22;40936;53.008;6.556;2023-02-21T03:18:29;10.10;99.90
55036;DHT22;40936;53.008;6.556;2023-02-21T03:20:57;11.00;99.90
55036;DHT22;40936;53.008;6.556;2023-02-21T03:23:27;11.70;99.90
55036;DHT22;40936;53.008;6.556;2023-02-21T03:25:58;11.70;99.90
55036;DHT22;40936;53.008;6.556;2023-02-21T03:28:26;11.70;99.90
55036;DHT22;40936;53.008;6.556;2023-02-21T03:30:54;11.70;99.90
55036;DHT22;40936;53.008;6.556;2023-02-21T03:33:21;11.70;99.90
55036;DHT22;40936;53.008;6.556;2023-02-21T03:35:47;11.70;99.90
55036;DHT22;40936;53.008;6.556;2023-02-21T03:38:13;11.70;99.90
55036;DHT22;40936;53.008;6.556;2023-02-21T03:40:38;11.70;99.90
55036;DHT22;40936;53.008;6.556;2023-02-21T03:43:05;11.70;99.90
55036;DHT22;40936;53.008;6.556;2023-02-21T03:45:32;11.70;99.90
55036;DHT22;40936;53.008;6.556;2023-02-21T03:47:58;11.70;99.90
55036;DHT22;40936;53.008;6.556;2023-02-21T03:50:24;11.70;99.90
55036;DHT22;40936;53.008;6.556;2023-02-21T03:52:50;11.70;99.90
55036;DHT22;40936;53.008;6.556;2023-02-21T03:55:15;11.70;99.90
55036;DHT22;40936;53.008;6.556;2023-02-21T03:57:41;11.70;99.90
55036;DHT22;40936;53.008;6.556;2023-02-21T04:00:07;11.70;99.90
55036;DHT22;40936;53.008;6.556;2023-02-21T04:02:33;11.70;99.90
55036;DHT22;40936;53.008;6.556;2023-02-21T04:04:59;11.70;99.90
55036;DHT22;40936;53.008;6.556;2023-02-21T04:07:25;11.70;99.90
55036;DHT22;40936;53.008;6.556;2023-02-21T04:09:50;11.70;99.90
55036;DHT22;40936;53.008;6.556;2023-02-21T04:12:16;11.70;99.90
55036;DHT22;40936;53.008;6.556;2023-02-21T04:14:42;11.70;99.90
55036;DHT22;40936;53.008;6.556;2023-02-21T04:17:08;11.70;99.90
55036;DHT22;40936;53.008;6.556;2023-02-21T04:19:33;11.70;99.90
55036;DHT22;40936;53.008;6.556;2023-02-21T04:21:59;11.70;99.90
55036;DHT22;40936;53.008;6.556;2023-02-21T04:24:25;11.70;99.90
55036;DHT22;40936;53.008;6.556;2023-02-21T04:26:51;11.70;99.90
55036;DHT22;40936;53.008;6.556;2023-02-21T04:29:18;11.70;99.90
55036;DHT22;40936;53.008;6.556;2023-02-21T04:31:44;12.00;99.90
55036;DHT22;40936;53.008;6.556;2023-02-21T04:34:09;11.70;99.90
55036;DHT22;40936;53.008;6.556;2023-02-21T04:36:35;11.70;99.90
55036;DHT22;40936;53.008;6.556;2023-02-21T04:39:03;11.70;99.90
55036;DHT22;40936;53.008;6.556;2023-02-21T04:41:29;11.70;99.90
55036;DHT22;40936;53.008;6.556;2023-02-21T04:43:54;11.80;99.90
55036;DHT22;40936;53.008;6.556;2023-02-21T04:46:20;11.80;99.90
55036;DHT22;40936;53.008;6.556;2023-02-21T04:48:48;11.70;99.90
55036;DHT22;40936;53.008;6.556;2023-02-21T04:51:16;11.70;99.90
55036;DHT22;40936;53.008;6.556;2023-02-21T04:53:43;11.70;99.90
55036;DHT22;40936;53.008;6.556;2023-02-21T04:56:09;11.70;99.90
55036;DHT22;40936;53.008;6.556;2023-02-21T04:58:37;12.10;99.90
55036;DHT22;40936;53.008;6.556;2023-02-21T05:01:03;11.70;99.90
55036;DHT22;40936;53.008;6.556;2023-02-21T05:03:28;11.70;99.90
55036;DHT22;40936;53.008;6.556;2023-02-21T05:05:54;11.70;99.90
55036;DHT22;40936;53.008;6.556;2023-02-21T05:08:20;11.70;99.90
55036;DHT22;40936;53.008;6.556;2023-02-21T05:10:46;11.70;99.90
55036;DHT22;40936;53.008;6.556;2023-02-21T05:13:13;11.70;99.90
55036;DHT22;40936;53.008;6.556;2023-02-21T05:15:39;11.70;99.90
55036;DHT22;40936;53.008;6.556;2023-02-21T05:18:04;11.70;99.90
55036;DHT22;40936;53.008;6.556;2023-02-21T05:20:30;11.50;99.90
55036;DHT22;40936;53.008;6.556;2023-02-21T05:22:56;11.70;99.90
55036;DHT22;40936;53.008;6.556;2023-02-21T05:25:22;11.70;99.90
55036;DHT22;40936;53.008;6.556;2023-02-21T05:27:51;11.70;99.90
55036;DHT22;40936;53.008;6.556;2023-02-21T05:30:19;11.70;99.90
55036;DHT22;40936;53.008;6.556;2023-02-21T05:32:46;11.70;99.90
55036;DHT22;40936;53.008;6.556;2023-02-21T05:35:13;11.70;99.90
55036;DHT22;40936;53.008;6.556;2023-02-21T05:37:39;11.70;99.90
55036;DHT22;40936;53.008;6.556;2023-02-21T05:40:08;11.70;99.90
55036;DHT22;40936;53.008;6.556;2023-02-21T05:42:34;11.70;99.90
55036;DHT22;40936;53.008;6.556;2023-02-21T05:45:00;11.70;99.90
55036;DHT22;40936;53.008;6.556;2023-02-21T05:47:26;11.70;99.90
55036;DHT22;40936;53.008;6.556;2023-02-21T05:49:52;11.70;99.90
55036;DHT22;40936;53.008;6.556;2023-02-21T05:52:18;11.70;99.90
55036;DHT22;40936;53.008;6.556;2023-02-21T05:54:43;11.70;99.90
55036;DHT22;40936;53.008;6.556;2023-02-21T05:57:09;11.60;99.90
55036;DHT22;40936;53.008;6.556;2023-02-21T05:59:36;12.10;99.90
55036;DHT22;40936;53.008;6.556;2023-02-21T06:02:02;11.70;99.90
55036;DHT22;40936;53.008;6.556;2023-02-21T06:04:28;11.70;99.90
55036;DHT22;40936;53.008;6.556;2023-02-21T06:06:54;11.60;99.90
55036;DHT22;40936;53.008;6.556;2023-02-21T06:09:20;11.60;99.90
55036;DHT22;40936;53.008;6.556;2023-02-21T06:11:45;11.60;99.90
55036;DHT22;40936;53.008;6.556;2023-02-21T06:14:17;11.70;99.90
55036;DHT22;40936;53.008;6.556;2023-02-21T06:16:44;11.60;99.90
55036;DHT22;40936;53.008;6.556;2023-02-21T06:19:11;11.60;99.90
55036;DHT22;40936;53.008;6.556;2023-02-21T06:21:38;11.60;99.90
55036;DHT22;40936;53.008;6.556;2023-02-21T06:24:05;11.60;99.90
55036;DHT22;40936;53.008;6.556;2023-02-21T06:26:31;11.60;99.90
55036;DHT22;40936;53.008;6.556;2023-02-21T06:28:57;11.60;99.90
55036;DHT22;40936;53.008;6.556;2023-02-21T06:31:23;11.60;99.90
55036;DHT22;40936;53.008;6.556;2023-02-21T06:33:50;11.70;99.90
55036;DHT22;40936;53.008;6.556;2023-02-21T06:36:20;11.60;99.90
55036;DHT22;40936;53.008;6.556;2023-02-21T06:38:48;11.70;99.90
55036;DHT22;40936;53.008;6.556;2023-02-21T06:41:17;11.60;99.90
55036;DHT22;40936;53.008;6.556;2023-02-21T06:43:44;11.60;99.90
55036;DHT22;40936;53.008;6.556;2023-02-21T06:46:14;11.70;99.90
55036;DHT22;40936;53.008;6.556;2023-02-21T06:48:40;11.60;99.90
55036;DHT22;40936;53.008;6.556;2023-02-21T06:51:06;11.60;99.90
55036;DHT22;40936;53.008;6.556;2023-02-21T06:53:36;11.70;99.90
55036;DHT22;40936;53.008;6.556;2023-02-21T06:56:02;11.60;99.90
55036;DHT22;40936;53.008;6.556;2023-02-21T06:58:27;11.60;99.90
55036;DHT22;40936;53.008;6.556;2023-02-21T07:00:53;11.70;99.90
55036;DHT22;40936;53.008;6.556;2023-02-21T07:03:19;11.60;99.90
55036;DHT22;40936;53.008;6.556;2023-02-21T07:05:45;11.60;99.90
55036;DHT22;40936;53.008;6.556;2023-02-21T07:08:11;11.60;99.90
55036;DHT22;40936;53.008;6.556;2023-02-21T07:10:37;11.60;99.90
55036;DHT22;40936;53.008;6.556;2023-02-21T07:13:02;11.60;99.90
55036;DHT22;40936;53.008;6.556;2023-02-21T07:15:28;11.60;99.90
55036;DHT22;40936;53.008;6.556;2023-02-21T07:17:54;11.60;99.90
55036;DHT22;40936;53.008;6.556;2023-02-21T07:20:19;11.60;99.90
55036;DHT22;40936;53.008;6.556;2023-02-21T07:22:45;11.70;99.90
55036;DHT22;40936;53.008;6.556;2023-02-21T07:25:20;11.60;99.90
55036;DHT22;40936;53.008;6.556;2023-02-21T07:27:47;11.70;99.90
55036;DHT22;40936;53.008;6.556;2023-02-21T07:30:14;11.70;99.90
55036;DHT22;40936;53.008;6.556;2023-02-21T07:32:40;11.70;99.90
55036;DHT22;40936;53.008;6.556;2023-02-21T07:35:06;11.70;99.90
55036;DHT22;40936;53.008;6.556;2023-02-21T07:37:32;11.70;99.90
55036;DHT22;40936;53.008;6.556;2023-02-21T07:39:57;11.70;99.90
55036;DHT22;40936;53.008;6.556;2023-02-21T07:42:23;11.70;99.90
55036;DHT22;40936;53.008;6.556;2023-02-21T07:44:54;11.70;99.90
55036;DHT22;40936;53.008;6.556;2023-02-21T07:47:21;11.70;99.90
55036;DHT22;40936;53.008;6.556;2023-02-21T07:49:47;11.70;99.90
55036;DHT22;40936;53.008;6.556;2023-02-21T07:52:13;11.70;99.90
55036;DHT22;40936;53.008;6.556;2023-02-21T07:54:39;11.70;99.90
55036;DHT22;40936;53.008;6.556;2023-02-21T07:57:05;11.80;99.90
55036;DHT22;40936;53.008;6.556;2023-02-21T07:59:31;11.80;99.90
55036;DHT22;40936;53.008;6.556;2023-02-21T08:01:57;11.80;99.90
55036;DHT22;40936;53.008;6.556;2023-02-21T08:04:23;11.80;99.90
55036;DHT22;40936;53.008;6.556;2023-02-21T08:06:49;11.80;99.90
55036;DHT22;40936;53.008;6.556;2023-02-21T08:09:15;11.80;99.90
55036;DHT22;40936;53.008;6.556;2023-02-21T08:11:41;11.80;99.90
55036;DHT22;40936;53.008;6.556;2023-02-21T08:14:06;11.80;99.90
55036;DHT22;40936;53.008;6.556;2023-02-21T08:16:32;11.90;99.90
55036;DHT22;40936;53.008;6.556;2023-02-21T08:18:58;11.90;99.90
55036;DHT22;40936;53.008;6.556;2023-02-21T08:21:24;11.80;99.90
55036;DHT22;40936;53.008;6.556;2023-02-21T08:23:54;11.90;99.90
55036;DHT22;40936;53.008;6.556;2023-02-21T08:26:20;11.90;99.90
55036;DHT22;40936;53.008;6.556;2023-02-21T08:28:46;11.90;99.90
55036;DHT22;40936;53.008;6.556;2023-02-21T08:31:12;11.90;99.90
55036;DHT22;40936;53.008;6.556;2023-02-21T08:33:37;11.90;99.90
55036;DHT22;40936;53.008;6.556;2023-02-21T08:36:03;11.90;99.90
55036;DHT22;40936;53.008;6.556;2023-02-21T08:38:29;12.00;99.90
55036;DHT22;40936;53.008;6.556;2023-02-21T08:40:55;12.00;99.90
55036;DHT22;40936;53.008;6.556;2023-02-21T08:43:23;12.00;99.90
55036;DHT22;40936;53.008;6.556;2023-02-21T08:45:49;12.00;99.90
55036;DHT22;40936;53.008;6.556;2023-02-21T08:48:15;12.00;99.90
55036;DHT22;40936;53.008;6.556;2023-02-21T08:50:40;12.00;99.90
55036;DHT22;40936;53.008;6.556;2023-02-21T08:53:06;11.90;99.90
55036;DHT22;40936;53.008;6.556;2023-02-21T08:55:32;12.00;99.90
55036;DHT22;40936;53.008;6.556;2023-02-21T08:57:58;12.00;99.90
55036;DHT22;40936;53.008;6.556;2023-02-21T09:00:24;12.00;99.90
55036;DHT22;40936;53.008;6.556;2023-02-21T09:02:53;12.00;99.90
55036;DHT22;40936;53.008;6.556;2023-02-21T09:05:24;11.90;99.90
55036;DHT22;40936;53.008;6.556;2023-02-21T09:07:52;12.00;99.90
55036;DHT22;40936;53.008;6.556;2023-02-21T09:10:27;12.00;99.90
55036;DHT22;40936;53.008;6.556;2023-02-21T09:12:54;12.00;99.90
55036;DHT22;40936;53.008;6.556;2023-02-21T09:15:19;12.10;99.90
55036;DHT22;40936;53.008;6.556;2023-02-21T09:17:45;12.10;99.90
55036;DHT22;40936;53.008;6.556;2023-02-21T09:20:16;12.20;99.90
55036;DHT22;40936;53.008;6.556;2023-02-21T09:22:43;12.20;99.90
55036;DHT22;40936;53.008;6.556;2023-02-21T09:25:10;12.20;99.90
55036;DHT22;40936;53.008;6.556;2023-02-21T09:27:40;12.20;99.90
55036;DHT22;40936;53.008;6.556;2023-02-21T09:30:12;12.30;99.90
55036;DHT22;40936;53.008;6.556;2023-02-21T09:32:39;12.30;99.90
55036;DHT22;40936;53.008;6.556;2023-02-21T09:35:06;12.30;99.90
55036;DHT22;40936;53.008;6.556;2023-02-21T09:37:32;12.40;99.90
55036;DHT22;40936;53.008;6.556;2023-02-21T09:39:58;12.40;99.90
55036;DHT22;40936;53.008;6.556;2023-02-21T09:42:28;12.40;99.90
55036;DHT22;40936;53.008;6.556;2023-02-21T09:44:55;12.50;99.90
55036;DHT22;40936;53.008;6.556;2023-02-21T09:47:29;12.50;99.90
55036;DHT22;40936;53.008;6.556;2023-02-21T09:50:06;12.50;99.90
55036;DHT22;40936;53.008;6.556;2023-02-21T09:52:36;12.60;99.90
55036;DHT22;40936;53.008;6.556;2023-02-21T09:55:12;12.60;99.90
55036;DHT22;40936;53.008;6.556;2023-02-21T09:57:39;12.70;99.90
55036;DHT22;40936;53.008;6.556;2023-02-21T10:00:35;12.80;99.90
55036;DHT22;40936;53.008;6.556;2023-02-21T10:03:25;12.80;96.90
55036;DHT22;40936;53.008;6.556;2023-02-21T10:06:24;12.90;78.90
55036;DHT22;40936;53.008;6.556;2023-02-21T10:09:24;12.80;51.70
55036;DHT22;40936;53.008;6.556;2023-02-21T10:12:04;12.90;68.80
55036;DHT22;40936;53.008;6.556;2023-02-21T10:20:15;13.00;25.70
55036;DHT22;40936;53.008;6.556;2023-02-21T10:22:45;13.00;38.90
55036;DHT22;40936;53.008;6.556;2023-02-21T10:25:27;12.90;21.80
55036;DHT22;40936;53.008;6.556;2023-02-21T10:27:54;13.00;36.60
55036;DHT22;40936;53.008;6.556;2023-02-21T10:30:36;13.00;42.20
55036;DHT22;40936;53.008;6.556;2023-02-21T10:33:03;13.00;36.40
55036;DHT22;40936;53.008;6.556;2023-02-21T10:35:35;13.00;39.10
55036;DHT22;40936;53.008;6.556;2023-02-21T10:38:06;13.00;40.50
55036;DHT22;40936;53.008;6.556;2023-02-21T10:43:18;13.00;26.70
55036;DHT22;40936;53.008;6.556;2023-02-21T10:48:12;13.10;28.50
55036;DHT22;40936;53.008;6.556;2023-02-21T10:50:48;13.10;22.00
55036;DHT22;40936;53.008;6.556;2023-02-21T10:53:33;13.10;18.50
55036;DHT22;40936;53.008;6.556;2023-02-21T10:59:03;13.10;20.00
55036;DHT22;40936;53.008;6.556;2023-02-21T11:01:43;13.20;21.70
55036;DHT22;40936;53.008;6.556;2023-02-21T11:06:57;11.60;8.10
55036;DHT22;40936;53.008;6.556;2023-02-21T11:09:45;13.10;16.10
55036;DHT22;40936;53.008;6.556;2023-02-21T11:14:40;13.20;13.30
55036;DHT22;40936;53.008;6.556;2023-02-21T11:22:08;13.30;4.90
55036;DHT22;40936;53.008;6.556;2023-02-21T11:24:44;13.40;6.50
55036;DHT22;40936;53.008;6.556;2023-02-21T11:27:11;13.40;1.00
55036;DHT22;40936;53.008;6.556;2023-02-21T11:29:41;13.40;3.20
55036;DHT22;40936;53.008;6.556;2023-02-21T11:32:39;13.40;1.00
55036;DHT22;40936;53.008;6.556;2023-02-21T11:35:33;13.30;1.00
55036;DHT22;40936;53.008;6.556;2023-02-21T11:38:05;13.20;1.00
55036;DHT22;40936;53.008;6.556;2023-02-21T11:40:48;13.10;1.00
55036;DHT22;40936;53.008;6.556;2023-02-21T11:43:26;13.10;1.00
55036;DHT22;40936;53.008;6.556;2023-02-21T11:48:20;13.20;5.50
55036;DHT22;40936;53.008;6.556;2023-02-21T11:50:52;13.20;10.00
55036;DHT22;40936;53.008;6.556;2023-02-21T11:53:29;13.30;2.30
55036;DHT22;40936;53.008;6.556;2023-02-21T12:01:34;13.40;1.00
55036;DHT22;40936;53.008;6.556;2023-02-21T12:04:22;13.30;1.00
55036;DHT22;40936;53.008;6.556;2023-02-21T12:12:36;13.30;1.00
55036;DHT22;40936;53.008;6.556;2023-02-21T12:15:20;13.30;1.00
55036;DHT22;40936;53.008;6.556;2023-02-21T12:21:38;13.40;1.00
55036;DHT22;40936;53.008;6.556;2023-02-21T12:23:57;13.30;1.00
55036;DHT22;40936;53.008;6.556;2023-02-21T12:37:29;13.30;1.00
55036;DHT22;40936;53.008;6.556;2023-02-21T12:48:43;13.20;1.00
55036;DHT22;40936;53.008;6.556;2023-02-21T12:51:14;13.20;1.00
55036;DHT22;40936;53.008;6.556;2023-02-21T12:53:50;13.10;8.60
55036;DHT22;40936;53.008;6.556;2023-02-21T12:56:19;13.20;9.40
55036;DHT22;40936;53.008;6.556;2023-02-21T12:59:03;13.10;6.00
55036;DHT22;40936;53.008;6.556;2023-02-21T13:01:42;13.10;10.10
55036;DHT22;40936;53.008;6.556;2023-02-21T13:04:34;13.20;11.70
55036;DHT22;40936;53.008;6.556;2023-02-21T13:07:16;13.20;9.90
55036;DHT22;40936;53.008;6.556;2023-02-21T13:12:59;13.10;14.80
55036;DHT22;40936;53.008;6.556;2023-02-21T13:15:28;13.20;23.10
55036;DHT22;40936;53.008;6.556;2023-02-21T13:20:32;13.10;29.50
55036;DHT22;40936;53.008;6.556;2023-02-21T13:28:51;13.10;77.70
55036;DHT22;40936;53.008;6.556;2023-02-21T13:31:26;13.10;83.10
55036;DHT22;40936;53.008;6.556;2023-02-21T13:33:59;13.00;77.80
55036;DHT22;40936;53.008;6.556;2023-02-21T13:36:44;12.90;96.90
55036;DHT22;40936;53.008;6.556;2023-02-21T13:39:19;12.90;99.90
55036;DHT22;40936;53.008;6.556;2023-02-21T13:42:00;12.70;99.90
55036;DHT22;40936;53.008;6.556;2023-02-21T13:44:30;12.60;99.90
55036;DHT22;40936;53.008;6.556;2023-02-21T13:47:02;12.60;99.90
55036;DHT22;40936;53.008;6.556;2023-02-21T13:57:43;12.60;99.90
55036;DHT22;40936;53.008;6.556;2023-02-21T14:13:47;12.50;99.90
55036;DHT22;40936;53.008;6.556;2023-02-21T14:18:50;12.40;99.90
55036;DHT22;40936;53.008;6.556;2023-02-21T14:24:04;12.40;99.90
55036;DHT22;40936;53.008;6.556;2023-02-21T14:26:35;12.40;99.90
55036;DHT22;40936;53.008;6.556;2023-02-21T14:34:11;12.30;99.90
55036;DHT22;40936;53.008;6.556;2023-02-21T14:36:38;12.30;99.90
55036;DHT22;40936;53.008;6.556;2023-02-21T14:39:06;12.30;99.90
55036;DHT22;40936;53.008;6.556;2023-02-21T14:42:06;12.30;99.90
55036;DHT22;40936;53.008;6.556;2023-02-21T14:44:46;14.10;99.90
55036;DHT22;40936;53.008;6.556;2023-02-21T14:50:23;12.30;99.90
55036;DHT22;40936;53.008;6.556;2023-02-21T15:01:35;12.20;99.90
55036;DHT22;40936;53.008;6.556;2023-02-21T15:04:25;12.10;1.00
55036;DHT22;40936;53.008;6.556;2023-02-21T15:07:00;12.10;1.00
55036;DHT22;40936;53.008;6.556;2023-02-21T15:09:26;12.10;1.00
55036;DHT22;40936;53.008;6.556;2023-02-21T15:11:52;12.10;1.00
55036;DHT22;40936;53.008;6.556;2023-02-21T15:14:29;12.30;1.00
55036;DHT22;40936;53.008;6.556;2023-02-21T15:17:00;12.10;1.00
55036;DHT22;40936;53.008;6.556;2023-02-21T15:19:34;12.10;1.00
55036;DHT22;40936;53.008;6.556;2023-02-21T15:24:32;12.00;1.00
55036;DHT22;40936;53.008;6.556;2023-02-21T15:27:11;12.00;1.00
55036;DHT22;40936;53.008;6.556;2023-02-21T15:29:39;12.00;1.00
55036;DHT22;40936;53.008;6.556;2023-02-21T15:32:06;12.00;1.00
55036;DHT22;40936;53.008;6.556;2023-02-21T15:34:42;12.00;1.00
55036;DHT22;40936;53.008;6.556;2023-02-21T15:39:39;12.00;1.00
55036;DHT22;40936;53.008;6.556;2023-02-21T15:42:08;12.00;1.00
55036;DHT22;40936;53.008;6.556;2023-02-21T15:44:43;12.00;13.60
55036;DHT22;40936;53.008;6.556;2023-02-21T15:47:14;11.90;29.50
55036;DHT22;40936;53.008;6.556;2023-02-21T15:49:50;12.00;34.30
55036;DHT22;40936;53.008;6.556;2023-02-21T15:52:46;11.90;65.50
55036;DHT22;40936;53.008;6.556;2023-02-21T15:57:46;11.90;99.90
55036;DHT22;40936;53.008;6.556;2023-02-21T16:00:31;12.00;99.90
55036;DHT22;40936;53.008;6.556;2023-02-21T16:08:49;11.90;99.90
55036;DHT22;40936;53.008;6.556;2023-02-21T16:11:15;11.90;99.90
55036;DHT22;40936;53.008;6.556;2023-02-21T16:13:41;11.80;99.90
55036;DHT22;40936;53.008;6.556;2023-02-21T16:16:07;11.90;99.90
55036;DHT22;40936;53.008;6.556;2023-02-21T16:18:33;11.80;99.90
55036;DHT22;40936;53.008;6.556;2023-02-21T16:21:02;11.80;99.90
55036;DHT22;40936;53.008;6.556;2023-02-21T16:23:42;11.80;99.90
55036;DHT22;40936;53.008;6.556;2023-02-21T16:28:41;11.80;99.90
55036;DHT22;40936;53.008;6.556;2023-02-21T16:31:14;13.20;99.90
55036;DHT22;40936;53.008;6.556;2023-02-21T16:33:40;11.80;99.90
55036;DHT22;40936;53.008;6.556;2023-02-21T16:36:09;11.80;99.90
55036;DHT22;40936;53.008;6.556;2023-02-21T16:38:40;11.80;99.90
55036;DHT22;40936;53.008;6.556;2023-02-21T16:41:13;11.80;99.90
55036;DHT22;40936;53.008;6.556;2023-02-21T16:43:40;11.80;99.90
55036;DHT22;40936;53.008;6.556;2023-02-21T16:46:06;11.70;99.90
55036;DHT22;40936;53.008;6.556;2023-02-21T16:48:32;11.70;1.00
55036;DHT22;40936;53.008;6.556;2023-02-21T16:51:04;11.30;1.00
55036;DHT22;40936;53.008;6.556;2023-02-21T16:53:32;11.70;1.00
55036;DHT22;40936;53.008;6.556;2023-02-21T16:55:59;11.70;1.00
55036;DHT22;40936;53.008;6.556;2023-02-21T16:58:38;11.70;1.00
55036;DHT22;40936;53.008;6.556;2023-02-21T17:01:13;11.70;1.00
55036;DHT22;40936;53.008;6.556;2023-02-21T17:03:39;11.70;8.00
55036;DHT22;40936;53.008;6.556;2023-02-21T17:06:07;11.70;1.00
55036;DHT22;40936;53.008;6.556;2023-02-21T17:08:39;11.70;1.00
55036;DHT22;40936;53.008;6.556;2023-02-21T17:11:04;11.70;1.00
55036;DHT22;40936;53.008;6.556;2023-02-21T17:13:30;11.70;22.50
55036;DHT22;40936;53.008;6.556;2023-02-21T17:15:56;11.70;15.80
55036;DHT22;40936;53.008;6.556;2023-02-21T17:18:21;11.70;17.40
55036;DHT22;40936;53.008;6.556;2023-02-21T17:20:47;11.70;30.60
55036;DHT22;40936;53.008;6.556;2023-02-21T17:23:13;11.70;41.50
55036;DHT22;40936;53.008;6.556;2023-02-21T17:25:39;11.70;64.60
55036;DHT22;40936;53.008;6.556;2023-02-21T17:28:04;11.70;60.00
55036;DHT22;40936;53.008;6.556;2023-02-21T17:30:30;11.70;74.60
55036;DHT22;40936;53.008;6.556;2023-02-21T17:32:56;11.70;99.90
55036;DHT22;40936;53.008;6.556;2023-02-21T17:35:22;11.70;94.30
55036;DHT22;40936;53.008;6.556;2023-02-21T17:37:49;11.70;70.50
55036;DHT22;40936;53.008;6.556;2023-02-21T17:40:18;11.70;65.40
55036;DHT22;40936;53.008;6.556;2023-02-21T17:42:44;11.70;46.20
55036;DHT22;40936;53.008;6.556;2023-02-21T17:45:10;11.70;22.30
55036;DHT22;40936;53.008;6.556;2023-02-21T17:47:36;11.70;23.50
55036;DHT22;40936;53.008;6.556;2023-02-21T17:50:03;11.70;51.30
55036;DHT22;40936;53.008;6.556;2023-02-21T17:52:30;11.70;34.40
55036;DHT22;40936;53.008;6.556;2023-02-21T17:54:56;11.70;95.50
55036;DHT22;40936;53.008;6.556;2023-02-21T17:57:22;11.70;99.80
55036;DHT22;40936;53.008;6.556;2023-02-21T17:59:47;11.70;97.00
55036;DHT22;40936;53.008;6.556;2023-02-21T18:02:14;11.70;86.50
55036;DHT22;40936;53.008;6.556;2023-02-21T18:04:41;11.70;74.80
55036;DHT22;40936;53.008;6.556;2023-02-21T18:07:07;11.70;74.30
55036;DHT22;40936;53.008;6.556;2023-02-21T18:09:32;11.70;64.40
55036;DHT22;40936;53.008;6.556;2023-02-21T18:11:59;11.70;49.70
55036;DHT22;40936;53.008;6.556;2023-02-21T18:14:26;11.90;73.80
55036;DHT22;40936;53.008;6.556;2023-02-21T18:16:55;11.70;59.80
55036;DHT22;40936;53.008;6.556;2023-02-21T18:19:22;11.70;54.00
55036;DHT22;40936;53.008;6.556;2023-02-21T18:21:48;11.70;99.90
55036;DHT22;40936;53.008;6.556;2023-02-21T18:24:14;12.20;98.00
55036;DHT22;40936;53.008;6.556;2023-02-21T18:26:40;11.70;91.90
55036;DHT22;40936;53.008;6.556;2023-02-21T18:29:07;11.70;89.50
55036;DHT22;40936;53.008;6.556;2023-02-21T18:31:33;11.70;74.70
55036;DHT22;40936;53.008;6.556;2023-02-21T18:34:00;11.70;67.40
55036;DHT22;40936;53.008;6.556;2023-02-21T18:36:26;11.70;55.60
55036;DHT22;40936;53.008;6.556;2023-02-21T18:38:52;11.70;44.50
55036;DHT22;40936;53.008;6.556;2023-02-21T18:41:20;11.70;38.60